II01 weather

Grandlienard-Hogg Airport
Bluffton, Indiana, United States

Public forecast

Using degrees Fahrenheit for public forecast. Weather courtesy of forecast.io.

METAR (pilot weather report)

Closest report is Huntington Municipal Airport, 11.0 nm (20.4 km) WNW. Retrieved 2019/04/19 18:35 UTC (0 seconds ago):

KHHG 191835Z AUTO 02013G21KT 10SM OVC012 06/05 A2968 RMK AO2 T00600050

TAF (pilot weather forecast)

Closest forecast is Fort Wayne International Airport, 13.6 nm (25.2 km) N. Retrieved 2019/04/19 18:39 UTC (0 seconds ago):

TAF KFWA 191736Z 1918/2018 01016G24KT P6SM -SHRA OVC015 FM200400 02016G28KT P6SM -SHRA OVC010 WS020/04050KT TEMPO 2010/2014 3SM SHRA BR OVC006 FM201400 36014G24KT P6SM OVC010